METAR Data

Data at: 1742 UTC 21 Nov 2018

METAR for:KEWB (New Bedford Rgnl, MA, US)
Text:KEWB 211653Z 24008KT 10SM FEW110 05/M01 A2993 RMK AO2 SLP135 T00501011
Temperature: 5.0°C ( 41°F)
Dewpoint: -1.1°C ( 30°F) [RH = 65%]
Pressure (altimeter):29.93 inches Hg (1013.6 mb) [Sea level pressure: 1013.5 mb]
Winds:from the WSW (240 degrees) at 9 MPH (8 knots; 4.1 m/s)
Visibility:10 or more sm (16+ km)
Ceiling:at least 12,000 feet AGL
Clouds: few clouds at 11000 feet AGL